Loch Glascarnoch, United Kingdom

2:30 AM GMT on February 13, 2016 (GMT +0000)
Garve | | Change Station
CLOSE
Current Station
Personal Weather Station
Location: United Kingdom,
Elevation: 262 ft
Nearby Weather Stations

Elev 262 ft 57.62 °N, 4.69 °W | Updated 13 seconds ago

Partly Cloudy
Partly Cloudy
35.4 °F
Feels Like 32 °F
N
4.3
Wind Variable Wind from SSE
Gusts 7.6 mph

Today
High -- | Low -- °F
--% Chance of Precip.
Yesterday
High -- | Low -- °F
Precip. -- in
Pressure 29.50 in
Visibility 6.2 miles
Clouds Few 900 ft
Windchill 32 °F
Dew Point 29 °F
Humidity 77%
Rainfall 0.00 in
Snow Depth Not available.
7:56 AM 5:12 PM
Waxing Crescent, 26% visible
METAR EGPE 130220Z 08008KT 9999 FEW009 01/M02 Q0999
Pressure 29.50 in
Visibility 6.2 miles
Clouds Few 900 ft
Windchill 32 °F
Dew Point 29 °F
Humidity 77%
Rainfall 0.00 in
Snow Depth Not available.
7:56 AM 5:12 PM
Waxing Crescent, 26% visible
METAR EGPE 130220Z 08008KT 9999 FEW009 01/M02 Q0999

10-Day Weather Forecast

Almanac

Astronomy

Feb. 13, 2016 Rise Set
Actual Time
Civil Twilight
Nautical Twilight
Astronomical Twilight
Moon
Length of Visible Light
Length of Day
Tomorrow will be .
, % of the Moon is Illuminated

Today's Extremes

Country Highs Country Lows

Community

WunderPhotos

Upload Photos

1,892,464 photos uploaded!

WunderBlog® & News

Nearby

Air Quality

  Air Quality AQ Index Pollutant
Not available.

Snow Depth

Station Depth Elevation

Earthquake Activity

City Distance Mag. Time & Date
Minimum magnitude displayed is 2.5.

Coastal Water Temperatures

Place Temperature

Stations

Nearby Weather Stations

Station Location Temp. Windchill Dew Point Humidity Wind Precip. Elev Updated Type